Time;durP1;ratioP1;P1;durP2;ratioP2;P2;SDS_P1;SDS_P2;PMS_P1;PMS_P2;Temp;Humidity;BMP_temperature;BMP_pressure;BME280_temperature;BME280_humidity;BME280_pressure;Samples;Min_cycle;Max_cycle;Signal;HPM_P1;HPM_P2
2024/02/26 00:02:33;;;;;;;1.00;1.00;;;;;;;;;;6035238;23;20445;-84
2024/02/26 00:05:31;;;;;;;1.93;1.10;;;;;;;;;;6038073;23;20410;-84
2024/02/26 00:08:15;;;;;;;1.10;1.00;;;;;;;;;;6031358;23;20430;-86
2024/02/26 00:14:13;;;;;;;1.17;1.10;;;;;;;;;;6062519;23;20470;-85
2024/02/26 00:16:56;;;;;;;0.80;0.80;;;;;;;;;;6032097;23;20428;-87
2024/02/26 00:19:52;;;;;;;;;;;;;;;;;;;;;
2024/02/26 00:22:52;;;;;;;0.93;0.93;;;;;;;;;;6049786;23;20441;-86
2024/02/26 00:26:11;;;;;;;;;;;;;;;;;;;;;
2024/02/26 00:28:49;;;;;;;2.63;1.13;;;;;;;;;;6055085;23;20448;-86
2024/02/26 00:31:19;;;;;;;1.30;1.00;;;;;;;;;;6030881;23;20448;-86
2024/02/26 00:34:31;;;;;;;1.77;1.20;;;;;;;;;;6029930;23;21145;-86
2024/02/26 00:37:05;;;;;;;0.93;0.80;;;;;;;;;;6119478;23;20415;-87
2024/02/26 00:39:54;;;;;;;0.90;0.83;;;;;;;;;;6116999;23;20462;-85
2024/02/26 00:42:52;;;;;;;0.63;0.63;;;;;;;;;;6119412;23;21198;-84
2024/02/26 00:45:28;;;;;;;2.00;1.00;;;;;;;;;;6137570;23;20434;-83
2024/02/26 00:48:01;;;;;;;1.20;0.70;;;;;;;;;;6142648;23;20401;-84
2024/02/26 00:50:48;;;;;;;0.80;0.80;;;;;;;;;;6116973;23;20434;-83
2024/02/26 00:53:25;;;;;;;0.83;0.73;;;;;;;;;;6115270;23;20489;-83
2024/02/26 00:56:06;;;;;;;1.17;0.90;;;;;;;;;;6141522;23;20419;-84
2024/02/26 00:58:53;;;;;;;1.07;0.97;;;;;;;;;;6140827;23;20442;-84
2024/02/26 01:01:27;;;;;;;1.20;0.77;;;;;;;;;;6140185;23;20419;-83
2024/02/26 01:04:11;;;;;;;1.37;0.60;;;;;;;;;;6118861;23;20438;-84
2024/02/26 01:06:44;;;;;;;0.87;0.70;;;;;;;;;;6117886;23;20461;-83
2024/02/26 01:09:19;;;;;;;0.90;0.90;;;;;;;;;;6138925;23;20402;-84
2024/02/26 01:11:52;;;;;;;0.93;0.90;;;;;;;;;;6117420;23;20433;-85
2024/02/26 01:14:24;;;;;;;0.90;0.90;;;;;;;;;;6116202;23;20474;-85
2024/02/26 01:16:54;;;;;;;0.80;0.80;;;;;;;;;;6136936;23;20411;-85
2024/02/26 01:19:43;;;;;;;0.80;0.80;;;;;;;;;;6123385;23;20518;-84
2024/02/26 01:22:20;;;;;;;0.97;0.70;;;;;;;;;;6136381;23;20438;-84
2024/02/26 01:24:58;;;;;;;1.00;0.63;;;;;;;;;;6120244;23;20441;-82
2024/02/26 01:28:05;;;;;;;0.50;0.50;;;;;;;;;;6122072;23;20414;-84
2024/02/26 01:30:41;;;;;;;0.70;0.70;;;;;;;;;;6132532;23;21166;-83
2024/02/26 01:33:14;;;;;;;1.70;0.83;;;;;;;;;;6130835;23;20430;-85
2024/02/26 01:35:49;;;;;;;1.00;0.90;;;;;;;;;;6127813;23;20515;-85
2024/02/26 01:38:27;;;;;;;1.30;0.73;;;;;;;;;;6149488;23;20721;-86
2024/02/26 01:41:02;;;;;;;0.73;0.70;;;;;;;;;;6124986;23;20438;-86
2024/02/26 01:43:37;;;;;;;1.27;0.77;;;;;;;;;;6134161;23;20470;-86
2024/02/26 01:46:21;;;;;;;1.33;0.60;;;;;;;;;;6126564;23;20954;-85
2024/02/26 01:48:58;;;;;;;0.70;0.70;;;;;;;;;;6122148;23;20722;-86
2024/02/26 01:51:32;;;;;;;0.70;0.60;;;;;;;;;;6126080;23;20890;-88
2024/02/26 01:54:05;;;;;;;0.57;0.50;;;;;;;;;;6124769;23;20435;-86
2024/02/26 01:57:00;;;;;;;0.70;0.70;;;;;;;;;;6151011;23;20435;-85
2024/02/26 01:59:28;;;;;;;1.03;0.60;;;;;;;;;;6153309;23;20683;-89
2024/02/26 02:02:11;;;;;;;1.27;0.90;;;;;;;;;;6153998;23;20418;-86
2024/02/26 02:04:50;;;;;;;1.10;0.83;;;;;;;;;;6122818;23;20553;-86
2024/02/26 02:07:23;;;;;;;1.27;0.60;;;;;;;;;;6124004;23;20397;-86
2024/02/26 02:10:08;;;;;;;0.80;0.80;;;;;;;;;;6115102;23;20501;-86
2024/02/26 02:12:40;;;;;;;0.80;0.80;;;;;;;;;;6123361;23;20426;-84
2024/02/26 02:15:19;;;;;;;0.80;0.80;;;;;;;;;;6125270;23;20892;-84
2024/02/26 02:17:59;;;;;;;1.67;0.70;;;;;;;;;;6147153;23;20406;-86
2024/02/26 02:20:51;;;;;;;;;;;;;;;;;;;;;
2024/02/26 02:23:27;;;;;;;0.70;0.70;;;;;;;;;;6156168;23;20442;-85
2024/02/26 02:26:00;;;;;;;1.53;0.70;;;;;;;;;;6149373;23;20415;-85
2024/02/26 02:28:34;;;;;;;0.80;0.80;;;;;;;;;;6122649;23;20453;-87
2024/02/26 02:31:12;;;;;;;0.70;0.70;;;;;;;;;;6127931;23;20474;-87
2024/02/26 02:33:44;;;;;;;0.70;0.70;;;;;;;;;;6134334;23;20534;-87
2024/02/26 02:36:36;;;;;;;1.90;0.70;;;;;;;;;;6138146;23;20398;-82
2024/02/26 02:39:11;;;;;;;0.67;0.67;;;;;;;;;;6129921;23;20430;-86
2024/02/26 02:41:41;;;;;;;1.10;0.70;;;;;;;;;;6125141;23;20419;-86
2024/02/26 02:44:28;;;;;;;0.77;0.77;;;;;;;;;;6148326;23;20431;-85
2024/02/26 02:47:06;;;;;;;1.10;1.00;;;;;;;;;;6112744;23;20407;-85
2024/02/26 02:49:42;;;;;;;1.50;0.77;;;;;;;;;;6118370;23;20826;-86
2024/02/26 02:52:26;;;;;;;0.73;0.60;;;;;;;;;;6153050;23;20457;-87
2024/02/26 02:55:08;;;;;;;1.10;0.70;;;;;;;;;;6132612;23;20497;-83
2024/02/26 02:57:44;;;;;;;0.93;0.93;;;;;;;;;;6127946;23;20422;-86
2024/02/26 03:00:25;;;;;;;0.70;0.70;;;;;;;;;;6128180;23;21017;-88
2024/02/26 03:02:58;;;;;;;1.30;0.73;;;;;;;;;;6125611;23;20525;-86
2024/02/26 03:05:40;;;;;;;0.67;0.60;;;;;;;;;;6129333;23;20889;-85
2024/02/26 03:08:28;;;;;;;3.03;0.70;;;;;;;;;;6126631;23;20423;-86
2024/02/26 03:11:00;;;;;;;0.60;0.60;;;;;;;;;;6151449;23;20533;-86
2024/02/26 03:13:44;;;;;;;0.70;0.70;;;;;;;;;;6010022;23;20439;-85
2024/02/26 03:16:14;;;;;;;0.60;0.60;;;;;;;;;;6010089;23;20442;-87
2024/02/26 03:18:46;;;;;;;0.90;0.90;;;;;;;;;;6010736;23;20417;-87
2024/02/26 03:21:37;;;;;;;0.77;0.73;;;;;;;;;;6014339;23;20417;-85
2024/02/26 03:24:13;;;;;;;0.60;0.60;;;;;;;;;;6007084;23;20439;-87
2024/02/26 03:26:55;;;;;;;1.67;0.70;;;;;;;;;;6010613;23;20448;-86
2024/02/26 03:29:35;;;;;;;0.97;0.77;;;;;;;;;;6009200;23;20423;-85
2024/02/26 03:32:13;;;;;;;0.93;0.70;;;;;;;;;;6094738;23;20442;-87
2024/02/26 03:35:04;;;;;;;0.93;0.80;;;;;;;;;;6126003;23;20383;-86
2024/02/26 03:37:53;;;;;;;1.37;0.70;;;;;;;;;;6092300;23;20422;-87
2024/02/26 03:43:51;;;;;;;1.10;0.80;;;;;;;;;;6149268;23;20545;-86
2024/02/26 03:46:35;;;;;;;0.70;0.60;;;;;;;;;;6125598;23;21167;-86
2024/02/26 03:52:28;;;;;;;0.80;0.70;;;;;;;;;;6151758;23;20434;-86
2024/02/26 03:55:05;;;;;;;1.00;0.70;;;;;;;;;;6125625;23;20407;-86
2024/02/26 03:58:01;;;;;;;0.77;0.70;;;;;;;;;;6146267;23;20486;-88
2024/02/26 04:00:59;;;;;;;1.13;0.70;;;;;;;;;;6128444;23;20510;-87
2024/02/26 04:04:16;;;;;;;1.37;1.13;;;;;;;;;;6127283;23;20478;-86
2024/02/26 04:07:13;;;;;;;0.80;0.80;;;;;;;;;;6125873;23;20422;-86
2024/02/26 04:10:11;;;;;;;0.70;0.70;;;;;;;;;;6121057;23;20406;-85
2024/02/26 04:12:50;;;;;;;1.10;0.90;;;;;;;;;;6120502;23;20495;-88
2024/02/26 04:15:38;;;;;;;0.70;0.70;;;;;;;;;;6120139;23;20393;-85
2024/02/26 04:18:15;;;;;;;0.73;0.73;;;;;;;;;;6126857;23;20411;-84
2024/02/26 04:20:45;;;;;;;1.57;0.90;;;;;;;;;;6126623;23;20427;-85
2024/02/26 04:23:29;;;;;;;0.60;0.60;;;;;;;;;;6128995;23;20493;-83
2024/02/26 04:26:09;;;;;;;0.83;0.83;;;;;;;;;;6145868;23;20410;-86
2024/02/26 04:29:05;;;;;;;1.03;0.80;;;;;;;;;;6174189;23;20462;-85
2024/02/26 04:31:51;;;;;;;1.17;0.60;;;;;;;;;;6175539;23;20453;-87
2024/02/26 04:34:59;;;;;;;;;;;;;;;;;;;;;
2024/02/26 04:37:31;;;;;;;1.50;0.77;;;;;;;;;;6169904;23;20473;-86
2024/02/26 04:40:25;;;;;;;1.67;0.97;;;;;;;;;;6129731;23;20414;-87
2024/02/26 04:43:08;;;;;;;1.13;1.07;;;;;;;;;;6132592;23;20434;-87
2024/02/26 04:45:41;;;;;;;1.40;0.80;;;;;;;;;;6130252;23;20815;-86
2024/02/26 04:48:22;;;;;;;0.93;0.93;;;;;;;;;;6131878;23;20812;-86
2024/02/26 04:50:56;;;;;;;1.03;0.83;;;;;;;;;;6130410;23;20846;-85
2024/02/26 04:53:50;;;;;;;0.87;0.80;;;;;;;;;;6045782;23;20420;-86
2024/02/26 04:56:25;;;;;;;1.10;1.00;;;;;;;;;;6041888;23;20545;-86
2024/02/26 04:59:10;;;;;;;1.23;0.93;;;;;;;;;;6065920;23;20413;-87
2024/02/26 05:01:45;;;;;;;1.30;1.13;;;;;;;;;;6045417;23;20433;-85
2024/02/26 05:04:29;;;;;;;1.17;0.70;;;;;;;;;;6068069;23;20432;-88
2024/02/26 05:07:14;;;;;;;1.17;1.17;;;;;;;;;;6045565;23;20421;-86
2024/02/26 05:09:52;;;;;;;1.63;1.37;;;;;;;;;;6059696;23;20413;-86
2024/02/26 05:12:35;;;;;;;2.70;1.63;;;;;;;;;;6061197;23;20541;-85
2024/02/26 05:15:26;;;;;;;0.93;0.87;;;;;;;;;;6046585;23;20401;-85
2024/02/26 05:18:16;;;;;;;0.90;0.90;;;;;;;;;;6000087;23;20469;-84
2024/02/26 05:21:00;;;;;;;1.17;0.80;;;;;;;;;;6018018;23;20437;-86
2024/02/26 05:23:49;;;;;;;2.10;0.97;;;;;;;;;;6033837;23;21183;-86
2024/02/26 05:26:26;;;;;;;1.63;0.80;;;;;;;;;;6069862;23;20457;-83
2024/02/26 05:29:46;;;;;;;1.10;1.00;;;;;;;;;;6047897;23;20398;-84
2024/02/26 05:33:23;;;;;;;1.53;0.70;;;;;;;;;;6013321;23;20951;-86
2024/02/26 05:36:25;;;;;;;1.17;0.90;;;;;;;;;;6015964;23;20415;-87
2024/02/26 05:38:57;;;;;;;2.07;1.10;;;;;;;;;;6043320;23;20421;-85
2024/02/26 05:41:46;;;;;;;1.47;0.93;;;;;;;;;;6010783;23;20423;-84
2024/02/26 05:44:46;;;;;;;0.93;0.90;;;;;;;;;;6031553;23;20434;-86
2024/02/26 05:47:29;;;;;;;1.87;1.40;;;;;;;;;;6026794;23;20410;-85
2024/02/26 05:50:15;;;;;;;1.00;1.00;;;;;;;;;;6117223;23;20414;-84
2024/02/26 05:52:58;;;;;;;2.00;1.20;;;;;;;;;;6133154;23;20449;-86
2024/02/26 05:55:39;;;;;;;1.53;1.23;;;;;;;;;;6013263;23;20454;-86
2024/02/26 05:58:17;;;;;;;1.50;1.00;;;;;;;;;;6013146;23;20457;-86
2024/02/26 06:00:55;;;;;;;1.13;1.03;;;;;;;;;;6007379;23;20455;-85
2024/02/26 06:03:49;;;;;;;3.60;1.43;;;;;;;;;;6010091;23;20438;-84
2024/02/26 06:06:43;;;;;;;3.17;1.10;;;;;;;;;;6000647;23;20413;-85
2024/02/26 06:09:29;;;;;;;1.20;1.10;;;;;;;;;;6025934;23;20489;-87
2024/02/26 06:11:56;;;;;;;1.10;1.00;;;;;;;;;;6047052;23;20448;-86
2024/02/26 06:14:32;;;;;;;1.90;1.40;;;;;;;;;;6036484;23;20954;-85
2024/02/26 06:17:30;;;;;;;1.40;1.20;;;;;;;;;;6009873;23;20470;-88
2024/02/26 06:20:12;;;;;;;1.27;1.17;;;;;;;;;;5928897;24;20509;-87
2024/02/26 06:26:34;;;;;;;2.10;1.23;;;;;;;;;;5948852;24;20400;-84
2024/02/26 06:29:25;;;;;;;1.70;1.00;;;;;;;;;;5949257;24;21018;-85
2024/02/26 06:32:40;;;;;;;1.10;1.00;;;;;;;;;;6013900;23;20442;-88
2024/02/26 06:35:46;;;;;;;;;;;;;;;;;;;;;
2024/02/26 06:46:21;;;;;;;1.33;1.23;;;;;;;;;;6032957;23;20373;-87
2024/02/26 06:49:09;;;;;;;1.57;1.47;;;;;;;;;;6032970;23;20423;-88
2024/02/26 06:52:19;;;;;;;;;;;;;;;;;;;;;
2024/02/26 06:55:41;;;;;;;2.30;1.40;;;;;;;;;;5973551;24;20416;-86
2024/02/26 07:40:36;;;;;;;2.60;1.67;;;;;;;;;;6007871;23;20395;-86
2024/02/26 07:47:25;;;;;;;1.93;1.37;;;;;;;;;;5926870;24;20396;-87
2024/02/26 07:50:30;;;;;;;4.43;1.53;;;;;;;;;;5844287;24;20434;-85
2024/02/26 08:00:08;;;;;;;1.83;1.73;;;;;;;;;;5928703;24;20447;-87
2024/02/26 08:14:03;;;;;;;;;;;;;;;;;;;;;
2024/02/26 08:17:24;;;;;;;1.30;1.20;;;;;;;;;;5872666;24;20405;-85
2024/02/26 08:23:40;;;;;;;1.57;1.30;;;;;;;;;;6029408;23;20594;-86
2024/02/26 08:30:05;;;;;;;1.57;1.47;;;;;;;;;;6128177;23;20416;-84
2024/02/26 08:33:15;;;;;;;;;;;;;;;;;;;;;
2024/02/26 10:19:42;;;;;;;3.30;2.10;;;;;;;;;;5999438;23;20419;-89
2024/02/26 11:38:24;;;;;;;1.97;1.83;;;;;;;;;;6109129;23;20364;-87
2024/02/26 11:41:22;;;;;;;2.63;2.40;;;;;;;;;;6075858;23;20469;-89
2024/02/26 11:47:53;;;;;;;3.60;2.37;;;;;;;;;;6056058;23;20402;-88
2024/02/26 12:13:00;;;;;;;2.37;2.17;;;;;;;;;;6143843;23;20531;-88
2024/02/26 12:16:11;;;;;;;3.10;2.03;;;;;;;;;;6054463;23;20403;-88
2024/02/26 12:23:04;;;;;;;3.17;1.97;;;;;;;;;;6044721;23;20857;-89
2024/02/26 12:26:29;;;;;;;4.80;2.10;;;;;;;;;;6025702;23;20407;-89
2024/02/26 12:33:36;;;;;;;3.40;1.90;;;;;;;;;;6139651;23;20525;-89
2024/02/26 12:39:51;;;;;;;3.50;2.23;;;;;;;;;;6131612;23;20415;-88
2024/02/26 12:46:46;;;;;;;2.83;2.13;;;;;;;;;;6006427;23;20422;-89
2024/02/26 12:49:37;;;;;;;2.73;1.93;;;;;;;;;;5995642;23;20459;-87
2024/02/26 12:56:31;;;;;;;2.07;1.90;;;;;;;;;;6140255;23;20363;-89
2024/02/26 13:10:17;;;;;;;3.63;3.20;;;;;;;;;;6094429;23;20431;-88
2024/02/26 13:29:33;;;;;;;3.07;2.77;;;;;;;;;;6135576;23;20459;-89
2024/02/26 13:32:34;;;;;;;2.70;2.47;;;;;;;;;;6141538;23;20411;-89
2024/02/26 13:47:50;;;;;;;4.50;3.30;;;;;;;;;;6075707;23;20457;-88
2024/02/26 13:59:23;;;;;;;5.17;3.40;;;;;;;;;;6158400;23;20443;-87
2024/02/26 14:05:10;;;;;;;3.63;3.00;;;;;;;;;;6153684;23;20525;-87
2024/02/26 14:07:55;;;;;;;6.03;3.43;;;;;;;;;;6155007;23;20819;-87
2024/02/26 14:21:29;;;;;;;4.93;3.33;;;;;;;;;;6083207;23;20407;-88
2024/02/26 14:24:29;;;;;;;5.73;3.30;;;;;;;;;;6137390;23;20430;-89
2024/02/26 14:27:32;;;;;;;6.10;4.60;;;;;;;;;;6144212;23;20759;-88
2024/02/26 14:37:36;;;;;;;3.93;3.50;;;;;;;;;;6195743;23;20416;-86
2024/02/26 14:40:17;;;;;;;4.13;3.17;;;;;;;;;;6169526;23;20428;-86
2024/02/26 14:43:11;;;;;;;6.63;5.23;;;;;;;;;;6104241;23;20476;-87
2024/02/26 15:00:35;;;;;;;4.83;4.00;;;;;;;;;;5991925;23;20983;-88
2024/02/26 15:03:33;;;;;;;6.33;4.10;;;;;;;;;;6011711;23;20437;-89
2024/02/26 15:06:41;;;;;;;5.30;4.00;;;;;;;;;;6056919;23;20392;-86
2024/02/26 15:22:56;;;;;;;6.97;4.70;;;;;;;;;;6198649;23;20437;-87
2024/02/26 15:25:57;;;;;;;;;;;;;;;;;;;;;
2024/02/26 15:32:39;;;;;;;7.00;6.30;;;;;;;;;;6124134;23;20446;-90
2024/02/26 15:39:25;;;;;;;7.33;5.83;;;;;;;;;;6197016;23;20370;-88
2024/02/26 15:45:10;;;;;;;9.10;5.20;;;;;;;;;;6186687;23;20454;-87
2024/02/26 15:48:30;;;;;;;8.53;5.43;;;;;;;;;;6169002;23;20170;-87
2024/02/26 15:54:55;;;;;;;8.40;5.70;;;;;;;;;;6171556;23;20358;-87
2024/02/26 16:05:07;;;;;;;9.13;6.90;;;;;;;;;;5962098;24;20492;-88
2024/02/26 16:15:20;;;;;;;9.70;7.03;;;;;;;;;;6161601;23;20536;-89
2024/02/26 16:21:45;;;;;;;7.70;6.17;;;;;;;;;;6103357;23;20405;-88
2024/02/26 17:24:58;;;;;;;;;;;;;;;;;;;;;
2024/02/26 17:31:47;;;;;;;;;;;;;;;;;;;;;
2024/02/26 17:34:35;;;;;;;8.27;7.37;;;;;;;;;;6160751;23;20481;-86
2024/02/26 17:37:39;;;;;;;8.00;6.90;;;;;;;;;;6168090;23;20504;-88
2024/02/26 17:44:05;;;;;;;8.23;7.33;;;;;;;;;;6096451;23;20445;-88
2024/02/26 17:47:20;;;;;;;8.00;7.17;;;;;;;;;;6098430;23;20409;-89
2024/02/26 17:55:33;;;;;;;10.10;7.30;;;;;;;;;;6172586;23;20454;-87
2024/02/26 18:01:54;;;;;;;;;;;;;;;;;;;;;
2024/02/26 18:04:53;;;;;;;8.23;7.10;;;;;;;;;;6122514;23;20396;-86
2024/02/26 18:07:55;;;;;;;11.00;6.87;;;;;;;;;;6119600;23;20412;-90
2024/02/26 18:10:31;;;;;;;8.00;7.20;;;;;;;;;;6136231;23;20903;-88
2024/02/26 18:13:45;;;;;;;8.43;6.47;;;;;;;;;;6132235;23;20466;-88
2024/02/26 18:16:46;;;;;;;9.33;6.47;;;;;;;;;;6065398;23;20426;-89
2024/02/26 18:25:26;;;;;;;5.50;5.00;;;;;;;;;;6153722;23;20545;-87
2024/02/26 18:38:24;;;;;;;5.90;5.30;;;;;;;;;;6139912;23;20465;-90
2024/02/26 18:46:33;;;;;;;6.13;5.53;;;;;;;;;;6135330;23;20909;-89
2024/02/26 18:49:32;;;;;;;5.93;5.43;;;;;;;;;;6125468;23;20400;-88
2024/02/26 18:55:09;;;;;;;;;;;;;;;;;;;;;
2024/02/26 18:58:23;;;;;;;6.07;5.30;;;;;;;;;;6174223;23;20402;-89
2024/02/26 19:01:12;;;;;;;8.13;5.60;;;;;;;;;;6167318;23;20493;-88
2024/02/26 19:04:46;;;;;;;7.93;6.40;;;;;;;;;;6164464;23;20423;-89
2024/02/26 19:08:01;;;;;;;6.40;5.70;;;;;;;;;;6161234;23;20414;-88
2024/02/26 19:10:51;;;;;;;6.30;5.47;;;;;;;;;;6169732;23;20462;-89
2024/02/26 19:13:45;;;;;;;5.80;5.20;;;;;;;;;;6029354;23;20484;-88
2024/02/26 19:16:34;;;;;;;7.07;5.60;;;;;;;;;;6035568;23;20407;-87
2024/02/26 19:19:47;;;;;;;6.73;6.03;;;;;;;;;;6023756;23;20667;-88
2024/02/26 19:25:33;;;;;;;6.40;5.60;;;;;;;;;;6130100;23;20440;-88
2024/02/26 19:28:54;;;;;;;;;;;;;;;;;;;;;
2024/02/26 19:32:11;;;;;;;7.00;6.30;;;;;;;;;;6134573;23;20921;-88
2024/02/26 19:35:04;;;;;;;11.03;5.93;;;;;;;;;;6096293;23;20432;-88
2024/02/26 19:37:34;;;;;;;8.13;6.20;;;;;;;;;;6065526;23;20411;-89
2024/02/26 19:47:51;;;;;;;9.63;7.40;;;;;;;;;;6096465;23;20443;-88
2024/02/26 19:50:55;;;;;;;7.40;6.80;;;;;;;;;;6043065;23;20415;-89
2024/02/26 19:54:16;;;;;;;7.57;6.67;;;;;;;;;;6035887;23;20508;-88
2024/02/26 19:57:27;;;;;;;7.43;6.17;;;;;;;;;;6088491;23;20409;-87
2024/02/26 20:00:33;;;;;;;7.10;6.13;;;;;;;;;;6084795;23;20396;-89
2024/02/26 20:03:38;;;;;;;;;;;;;;;;;;;;;
2024/02/26 20:06:54;;;;;;;5.70;5.20;;;;;;;;;;6010037;23;20448;-88
2024/02/26 20:09:47;;;;;;;7.07;6.37;;;;;;;;;;6023933;23;20422;-88
2024/02/26 20:12:31;;;;;;;7.30;6.33;;;;;;;;;;5998364;23;20451;-89
2024/02/26 20:15:32;;;;;;;6.63;6.00;;;;;;;;;;5994936;23;20426;-87
2024/02/26 20:18:34;;;;;;;7.27;6.30;;;;;;;;;;5995798;23;20387;-89
2024/02/26 20:21:43;;;;;;;6.60;5.60;;;;;;;;;;5992300;23;20416;-88
2024/02/26 20:24:40;;;;;;;5.87;5.27;;;;;;;;;;5979147;23;20443;-87
2024/02/26 20:27:23;;;;;;;6.50;5.90;;;;;;;;;;5997351;23;20502;-91
2024/02/26 20:33:14;;;;;;;5.70;5.10;;;;;;;;;;6014836;23;20546;-87
2024/02/26 20:35:56;;;;;;;6.57;5.57;;;;;;;;;;5994128;23;20949;-88
2024/02/26 20:38:39;;;;;;;6.17;5.67;;;;;;;;;;5998845;23;20434;-88
2024/02/26 20:41:50;;;;;;;;;;;;;;;;;;;;;
2024/02/26 20:44:28;;;;;;;5.70;5.20;;;;;;;;;;6029029;23;20427;-89
2024/02/26 20:57:55;;;;;;;5.90;5.03;;;;;;;;;;5921205;22;6251733;-88
2024/02/26 21:00:44;;;;;;;4.53;4.13;;;;;;;;;;6142273;23;20215;-89
2024/02/26 21:03:35;;;;;;;;;;;;;;;;;;;;;
2024/02/26 21:06:31;;;;;;;5.17;4.77;;;;;;;;;;6138915;23;20445;-88
2024/02/26 21:09:21;;;;;;;4.57;3.80;;;;;;;;;;6134518;23;20941;-89
2024/02/26 21:12:45;;;;;;;4.17;3.67;;;;;;;;;;6141082;23;20417;-88
2024/02/26 21:18:35;;;;;;;4.10;3.80;;;;;;;;;;6134550;23;20399;-87
2024/02/26 21:28:35;;;;;;;;;;;;;;;;;;;;;
2024/02/26 21:31:34;;;;;;;4.73;4.20;;;;;;;;;;6136073;23;20801;-87
2024/02/26 21:34:14;;;;;;;3.47;3.10;;;;;;;;;;6072328;23;20953;-89
2024/02/26 21:37:22;;;;;;;;;;;;;;;;;;;;;
2024/02/26 21:40:34;;;;;;;4.07;3.63;;;;;;;;;;6141835;23;20374;-88
2024/02/26 21:43:32;;;;;;;;;;;;;;;;;;;;;
2024/02/26 21:46:38;;;;;;;3.70;3.37;;;;;;;;;;6106353;23;20510;-89
2024/02/26 22:00:00;;;;;;;3.10;2.80;;;;;;;;;;6053439;23;20391;-87
2024/02/26 22:02:58;;;;;;;3.10;2.90;;;;;;;;;;6120119;23;21265;-87
2024/02/26 22:05:54;;;;;;;3.77;3.37;;;;;;;;;;6107161;23;20451;-88
2024/02/26 22:08:31;;;;;;;3.37;3.07;;;;;;;;;;6126093;23;20865;-88
2024/02/26 22:11:22;;;;;;;3.20;2.90;;;;;;;;;;6111701;23;20407;-89
2024/02/26 22:18:16;;;;;;;3.97;3.57;;;;;;;;;;6098662;23;20412;-88
2024/02/26 22:21:07;;;;;;;3.30;3.00;;;;;;;;;;6126427;23;20476;-91
2024/02/26 22:23:58;;;;;;;3.20;2.90;;;;;;;;;;6136153;23;20438;-88
2024/02/26 22:30:28;;;;;;;3.40;3.20;;;;;;;;;;6138896;23;20423;-87
2024/02/26 22:36:49;;;;;;;4.23;3.90;;;;;;;;;;6125662;23;20462;-89
2024/02/26 22:39:17;;;;;;;4.00;3.67;;;;;;;;;;6123118;23;20411;-88
2024/02/26 22:42:18;;;;;;;3.80;3.37;;;;;;;;;;6123626;23;20415;-87
2024/02/26 22:52:34;;;;;;;;;;;;;;;;;;;;;
2024/02/26 22:55:38;;;;;;;4.97;4.20;;;;;;;;;;6042097;23;20414;-88
2024/02/26 23:05:42;;;;;;;4.87;4.37;;;;;;;;;;6153566;23;20442;-89
2024/02/26 23:08:54;;;;;;;4.97;4.47;;;;;;;;;;5942598;24;20870;-88
2024/02/26 23:11:49;;;;;;;5.00;4.60;;;;;;;;;;5924988;24;20464;-90
2024/02/26 23:14:50;;;;;;;4.73;4.23;;;;;;;;;;5967607;23;20443;-91
2024/02/26 23:17:24;;;;;;;5.63;5.13;;;;;;;;;;6034011;23;20422;-90
2024/02/26 23:29:40;;;;;;;5.03;4.50;;;;;;;;;;6167049;23;20461;-89
2024/02/26 23:32:24;;;;;;;7.77;5.53;;;;;;;;;;6162550;23;20431;-90
2024/02/26 23:42:22;;;;;;;6.47;5.87;;;;;;;;;;6121478;23;20397;-89
2024/02/26 23:49:06;;;;;;;5.20;4.70;;;;;;;;;;5964981;23;20519;-88
2024/02/26 23:52:09;;;;;;;6.53;5.77;;;;;;;;;;5997954;23;20440;-89
2024/02/26 23:55:10;;;;;;;6.63;5.47;;;;;;;;;;5899639;24;20409;-90
2024/02/26 23:58:03;;;;;;;6.60;5.83;;;;;;;;;;5893859;24;20512;-89
